Tombstone, AZ (85638)

7:07 AM MST on December 29, 2014 (GMT -0700)
N7BOO | Change Station
CLOSE
Current Station
Personal Weather Station
Location: Tombstone, AZ
Elevation: 4472 ft
Nearby Weather Stations

Elev 4472 ft 31.73 °N, 110.05 °W | Updated 3 seconds ago

Partly Cloudy
Partly Cloudy
25.2 °F
Feels Like 25 °F
N
1.3
Wind Variable Wind from NE
Gusts 6.0 mph

Today
High -- | Low -- °F
--% Chance of Precip.
Yesterday
High -- | Low -- °F
Precip. -- in
7:19 AM 5:25 PM
First Quarter, 59% visible
Pressure 30.11 in
Visibility 10.0 miles
Clouds Clear
Windchill 25 °F
Dew Point 11 °F
Humidity 55%
Rainfall 0.00 in
Snow Depth Not available.
UV 0 out of 12
Pollen 4.00 out of 12
Air Quality Not available.
Flu Activity Not available.
METAR KFHU 291356Z AUTO 00000KT 10SM CLR 00/M12 A3010 RMK AO2 SLP195 T00001117 $

More Conditions Fewer Conditions

Pressure 30.11 in
Visibility 10.0 miles
Clouds Clear
Windchill 25 °F
Dew Point 11 °F
Humidity 55%
Rainfall 0.00 in
Snow Depth Not available.
UV 0 out of 12
Pollen 4.00 out of 12
Air Quality Not available.
Flu Activity Not available.
METAR KFHU 291356Z AUTO 00000KT 10SM CLR 00/M12 A3010 RMK AO2 SLP195 T00001117 $

More Conditions Fewer Conditions

10-Day Weather Forecast

Almanac

Astronomy

Dec. 29, 2014 Rise Set
Actual Time
Civil Twilight
Nautical Twilight
Astronomical Twilight
Moon
Length of Visible Light
Length of Day
Tomorrow will be .
, % of the Moon is Illuminated

Today's Extremes

State Highs State Lows

Community

WunderPhotos

Upload Photos

1,781,587 photos uploaded!

WunderBlogs® & News

Nearby

Air Quality

  Air Quality AQ Index Pollutant
Not available.

Snow Depth

Station Depth Elevation

Earthquake Activity

City Distance Mag. Time & Date
Minimum magnitude displayed is 2.5.

Coastal Water Temperatures

Place Temperature

Nearby Weather Stations